Nearby METAR Reports

 

LJLJ - Ljubljana/Brnik, Slovenia
Distance from station: W 41km
Updated: 18/01/2021 07:30
Overcast
Overcast
 Wind from varies
Wind: varies 2 km/h
Temperature: -4°C
Dew Point: -5°C
Humidity: 93%
Barometer: 1022 hPa
Clouds: Overcast
Visibility: 8 km
Cloud details: Few Clouds 152 m
Overcast 610 m
2021/01/18 06:30 LJLJ 180630Z VRB01KT 8000 FEW005 OVC020 M04/M05 Q1022 NOSIG
LJMB - Maribor, Slovenia
Distance from station: NE 63km
Updated: 18/01/2021 07:30
Clear
Clear
 Wind from NNW
Wind: NNW 7 km/h
Temperature: -8°C
Wind Chill: -12°C
Dew Point: -9°C
Humidity: 93%
Barometer: 1022 hPa
Summary: Clear
Visibility: greater than 10 km
2021/01/18 06:30 LJMB 180630Z 33004KT CAVOK M08/M09 Q1022
 
LJPZ - Portoroz, Slovenia
Distance from station: SW 130km
Updated: 18/01/2021 07:30
Mostly cloudy
Mostly cloudy
 Wind from SE
Wind: SE 9 km/h
Temperature: 1°C
Wind Chill: -2°C
Dew Point: -4°C
Humidity: 70%
Barometer: 1023 hPa
Clouds: Mostly cloudy
Visibility: 10 km
Cloud details: Mostly cloudy 1219 m
2021/01/18 06:30 LJPZ 180630Z 13005KT 9999 BKN040 01/M04 Q1023
LJCE - Cerklje, Slovenia
Distance from station: ESE 49km
Updated: 18/01/2021 07:30
Mist, Mostly cloudy
Mist, Mostly cloudy
 Wind from WSW
Wind: WSW 2 km/h
Temperature: -4°C
Dew Point: -5°C
Humidity: 93%
Barometer: 1024 hPa
Summary: Mist
Clouds: Mostly cloudy
Visibility: 4 km
Cloud details: Mostly cloudy 1219 m
2021/01/18 06:30 LJCE 180630Z 24001KT 4000 BR BKN040 M04/M05 Q1024 RMK GRN
 
LDZA - Zagreb/Pleso, Croatia
Distance from station: ESE 96km
Updated: 18/01/2021 08:00
Few Clouds
Few Clouds
 Wind from SW
Wind: SW 6 km/h
Temperature: -5°C
Dew Point: -6°C
Humidity: 93%
Barometer: 1024 hPa
Clouds: Few Clouds
Visibility: 8 km
Cloud details: Few Clouds 1219 m
2021/01/18 07:00 LDZA 180700Z 23003KT 8000 FEW040 M05/M06 Q1024 NOSIG
LDRI - Rijeka/Omisalj, Croatia
Distance from station: SSW 109km
Updated: 18/01/2021 08:00
Few Clouds
Few Clouds
 Wind from varies
Wind: varies 2 km/h
Temperature: -1°C
Dew Point: -7°C
Humidity: 64%
Barometer: 1023 hPa
Clouds: Few Clouds
Visibility: 10 km
Cloud details: Few Clouds 1676 m
2021/01/18 07:00 LDRI 180700Z VRB01KT 9999 FEW055 M01/M07 Q1023
 
LDPL - Pula, Croatia
Distance from station: SSW 164km
Updated: 18/01/2021 08:00
Mostly cloudy
Mostly cloudy
 Wind from NNE
Wind: NNE 7 km/h
Temperature: 0°C
Wind Chill: -3°C
Dew Point: -5°C
Humidity: 69%
Barometer: 1022 hPa
Clouds: Mostly cloudy
Visibility: 10 km
Cloud details: Mostly cloudy 1067 m
2021/01/18 07:00 LDPL 180700Z 02004KT 9999 BKN035 00/M05 Q1022 NOSIG
LOWK - Klagenfurt(Civ/M, Austria
Distance from station: NW 76km
Updated: 18/01/2021 07:50
Mostly cloudy
Mostly cloudy
 Wind from varies
Wind: varies 4 km/h
Temperature: -10°C
Dew Point: -12°C
Humidity: 85%
Barometer: 1023 hPa
Clouds: Mostly cloudy
Visibility: 8 km
Cloud details: Few Clouds 244 m
Mostly cloudy 305 m
2021/01/18 06:50 LOWK 180650Z VRB02KT 8000 FEW008 BKN010 M10/M12 Q1023 NOSIG
 
LOWG - Graz (mil/Civ), Austria
Distance from station: NNE 100km
Updated: 18/01/2021 07:50
Mostly cloudy
Mostly cloudy
 Wind from SW
Wind: SW 6 km/h
Temperature: -5°C
Dew Point: -7°C
Humidity: 86%
Barometer: 1021 hPa
Clouds: Mostly cloudy
Visibility: 10 km
Cloud details: Mostly cloudy 335 m
2021/01/18 06:50 LOWG 180650Z 23003KT 190V270 9999 BKN011 M05/M07 Q1021 R17/19//95 BECMG SCT012
LOAN - Wr.neustadt East, Austria
Distance from station: NNE 212km
Updated: 17/01/2021 17:00
NOT Current
Light snow, Mostly cloudy
Light snow, Mostly cloudy
 Wind from NNW
Wind: NNW 9 km/h
Summary: Light Snow
Clouds: Mostly cloudy
Cloud details: Few Clouds 914 m
Mostly cloudy 1524 m
2021/01/17 16:00 LOAN 171600Z 33005KT 10KM -SN FEW030SC BKN050SC
 
LIPQ - Ronchi Legionari, Italy
Distance from station: SW 35km
Updated: 18/01/2021 07:50
Mostly cloudy
Mostly cloudy
 Wind from NNE
Wind: NNE 7 km/h
Temperature: 0°C
Wind Chill: -3°C
Dew Point: -4°C
Humidity: 75%
Barometer: 1023 hPa
Clouds: Mostly cloudy
Visibility: 10 km
Cloud details: Mostly cloudy 1402 m
2021/01/18 06:50 LIPQ 180650Z AUTO 02004KT 9999 BKN046/// M00/M04 Q1023
LIVT - Trieste, Italy
Distance from station: WSW 109km
Updated: 18/01/2021 06:55
Clear
Clear
 Wind from varies
Wind: varies 0 km/h
Temperature: 2°C
Dew Point: -5°C
Humidity: 60%
Barometer: 1022 hPa
Summary: Clear
Visibility: greater than 10 km
2021/01/18 05:55 LIVT 180555Z /////KT CAVOK 02/M05 Q1022 RMK BKN BKN080 QUK / QUL / VIS MAR 20 KM VIS MIN 9999
 
LIVO - Tarvisio, Italy
Distance from station: NNW 49km
Updated: 17/01/2021 18:55
NOT Current
Clear
Clear
 Wind from calm
Wind: Calm
Temperature: -9°C
Dew Point: -11°C
Humidity: 86%
Barometer: 1014 hPa
Summary: Clear
Visibility: greater than 10 km
2021/01/17 17:55 LIVO 171755Z 00000KT CAVOK M09/M11 Q1014 RMK FEW FEW060 VIS MIN 9999
LIPZ - Venezia/Tessera, Italy
Distance from station: WSW 217km
Updated: 18/01/2021 07:50
Partly cloudy
Partly cloudy
 Wind from NNE
Wind: NNE 11 km/h
Temperature: -2°C
Wind Chill: -6°C
Dew Point: -6°C
Humidity: 74%
Barometer: 1023 hPa
Clouds: Partly cloudy
Visibility: 10 km
Cloud details: Partly cloudy 762 m
2021/01/18 06:50 LIPZ 180650Z 02006KT 9999 SCT025 M02/M06 Q1023 NOSIG
 
LHSM - Balaton, Hungary
Distance from station: ENE 177km
Updated: 18/01/2021 07:45
Overcast
Overcast
 Wind from varies
Wind: varies 4 km/h
Temperature: -3°C
Dew Point: -5°C
Humidity: 86%
Barometer: 1023 hPa
Clouds: Overcast
Visibility: 6 km
Cloud details: Overcast 1097 m
2021/01/18 06:45 LHSM 180645Z AUTO VRB02KT 6000 OVC036 M03/M05 Q1023 NOSIG